createdAt,value
2023-01-29T00:00:21.788Z,101280.03
2023-01-29T00:03:30.302Z,101284.37
2023-01-29T00:06:38.912Z,101284.47
2023-01-29T00:09:47.277Z,101279.94
2023-01-29T00:13:02.263Z,101280.84
2023-01-29T00:16:10.305Z,101286.88
2023-01-29T00:19:19.148Z,101293.00
2023-01-29T00:22:27.281Z,101293.06
2023-01-29T00:25:44.936Z,101298.34
2023-01-29T00:28:47.011Z,101295.63
2023-01-29T00:32:01.490Z,101302.50
2023-01-29T00:35:10.302Z,101292.56
2023-01-29T00:38:25.902Z,101317.12
2023-01-29T00:41:36.286Z,101308.25
2023-01-29T00:44:51.354Z,101299.25
2023-01-29T00:48:03.975Z,101308.66
2023-01-29T00:51:33.308Z,101293.44
2023-01-29T00:54:41.751Z,101222.53
2023-01-29T00:57:50.363Z,101319.88
2023-01-29T01:01:08.288Z,101291.56
2023-01-29T01:04:11.573Z,101319.56
2023-01-29T01:07:38.091Z,101324.66
2023-01-29T01:10:41.880Z,101301.37
2023-01-29T01:13:56.285Z,101306.38
2023-01-29T01:16:58.196Z,101323.97
2023-01-29T01:20:14.493Z,101301.78
2023-01-29T01:23:29.324Z,101319.59
2023-01-29T01:26:37.728Z,101325.78
2023-01-29T01:29:46.281Z,101325.69
2023-01-29T01:32:55.459Z,101314.13
2023-01-29T01:36:08.288Z,101335.28
2023-01-29T01:39:31.250Z,101328.13
2023-01-29T01:42:47.319Z,101346.25
2023-01-29T01:45:55.357Z,101342.28
2023-01-29T01:49:11.037Z,101340.38
2023-01-29T01:52:21.296Z,101345.44
2023-01-29T01:55:31.945Z,101348.78
2023-01-29T02:03:32.265Z,101355.47
2023-01-29T02:06:48.248Z,101340.22
2023-01-29T02:10:12.288Z,101349.47
2023-01-29T02:13:21.416Z,101331.94
2023-01-29T02:16:30.301Z,101343.66
2023-01-29T02:19:47.982Z,101350.97
2023-01-29T02:23:22.300Z,101354.03
2023-01-29T02:26:56.862Z,101361.12
2023-01-29T02:30:17.660Z,101333.78
2023-01-29T02:33:45.755Z,101358.28
2023-01-29T02:37:11.320Z,101365.28
2023-01-29T02:40:41.313Z,101368.75
2023-01-29T02:44:11.372Z,101362.50
2023-01-29T02:47:32.723Z,101362.50
2023-01-29T02:50:55.357Z,101376.34
2023-01-29T02:54:06.252Z,101371.00
2023-01-29T02:57:29.363Z,101381.41
2023-01-29T03:00:50.364Z,101377.81
2023-01-29T03:04:14.307Z,101358.22
2023-01-29T03:07:38.309Z,101378.81
2023-01-29T03:10:47.116Z,101381.41
2023-01-29T03:14:11.280Z,101384.84
2023-01-29T03:17:14.792Z,101388.16
2023-01-29T03:20:35.294Z,101388.25
2023-01-29T03:24:21.387Z,101384.53
2023-01-29T03:27:40.308Z,101383.78
2023-01-29T03:30:54.315Z,101375.31
2023-01-29T03:34:14.909Z,101389.87
2023-01-29T03:37:40.625Z,101405.19
2023-01-29T03:41:00.332Z,101400.03
2023-01-29T03:44:18.820Z,101397.38
2023-01-29T03:47:50.307Z,101400.88
2023-01-29T03:51:07.664Z,101409.66
2023-01-29T03:54:31.311Z,101409.87
2023-01-29T03:57:50.053Z,101404.00
2023-01-29T04:01:06.446Z,101398.81
2023-01-29T04:04:27.570Z,101407.53
2023-01-29T04:07:37.326Z,101391.81
2023-01-29T04:10:59.281Z,101393.66
2023-01-29T04:14:09.246Z,101396.53
2023-01-29T04:17:37.713Z,101395.72
2023-01-29T04:20:46.668Z,101386.84
2023-01-29T04:24:01.353Z,101403.50
2023-01-29T04:27:19.694Z,101399.16
2023-01-29T04:30:51.550Z,101413.06
2023-01-29T04:34:23.326Z,101396.50
2023-01-29T04:37:43.632Z,101394.69
2023-01-29T04:41:18.275Z,101349.34
2023-01-29T04:44:30.224Z,101401.78
2023-01-29T04:48:04.339Z,101404.34
2023-01-29T04:51:17.993Z,101402.63
2023-01-29T04:54:47.320Z,101405.38
2023-01-29T04:58:13.570Z,101400.13
2023-01-29T05:01:25.314Z,101393.91
2023-01-29T05:04:43.085Z,101407.09
2023-01-29T05:07:52.355Z,101404.62
2023-01-29T05:11:07.299Z,101369.34
2023-01-29T05:14:12.676Z,101382.13
2023-01-29T05:17:28.366Z,101403.03
2023-01-29T05:20:40.336Z,101400.38
2023-01-29T05:24:13.400Z,101401.12
2023-01-29T05:27:37.719Z,101405.38
2023-01-29T05:30:48.378Z,101388.59
2023-01-29T05:33:57.352Z,101395.69
2023-01-29T05:37:05.992Z,101399.22
2023-01-29T05:40:20.349Z,101376.13
2023-01-29T05:43:24.299Z,101403.41
2023-01-29T05:46:39.365Z,101404.28
2023-01-29T05:49:47.329Z,101403.41
2023-01-29T05:53:05.277Z,101387.50
2023-01-29T05:56:13.326Z,101396.41
2023-01-29T05:59:21.964Z,101405.16
2023-01-29T06:02:30.339Z,101409.50
2023-01-29T06:05:52.465Z,101417.34
2023-01-29T06:08:54.180Z,101411.12
2023-01-29T06:12:10.293Z,101407.34
2023-01-29T06:15:13.049Z,101427.63
2023-01-29T06:18:27.334Z,101400.06
2023-01-29T06:21:29.589Z,101424.88
2023-01-29T06:24:44.364Z,101429.25
2023-01-29T06:27:52.381Z,101444.16
2023-01-29T06:31:23.806Z,101431.78
2023-01-29T06:34:32.384Z,101448.59
2023-01-29T06:37:40.974Z,101457.41
2023-01-29T06:40:49.324Z,101468.84
2023-01-29T06:43:57.849Z,101469.47
2023-01-29T06:47:12.336Z,101474.56
2023-01-29T06:50:20.336Z,101475.47
2023-01-29T06:53:29.316Z,101477.16
2023-01-29T06:56:37.308Z,101479.81
2023-01-29T06:59:46.140Z,101473.59
2023-01-29T07:02:56.325Z,101474.50
2023-01-29T07:06:11.559Z,101476.31
2023-01-29T07:09:20.293Z,101478.88
2023-01-29T07:12:35.321Z,101472.94
2023-01-29T07:15:44.196Z,101430.44
2023-01-29T07:18:52.295Z,101481.69
2023-01-29T07:22:00.881Z,101475.47
2023-01-29T07:25:09.303Z,101470.34
2023-01-29T07:28:19.095Z,101466.09
2023-01-29T07:31:33.518Z,101439.56
2023-01-29T07:34:41.340Z,101459.00
2023-01-29T07:37:56.284Z,101449.34
2023-01-29T07:41:04.303Z,101455.47
2023-01-29T07:44:19.309Z,101383.03
2023-01-29T07:47:21.338Z,101446.16
2023-01-29T07:50:37.332Z,101437.31
2023-01-29T07:53:39.106Z,101438.03
2023-01-29T07:56:53.338Z,101432.09
2023-01-29T07:59:55.159Z,101428.56
2023-01-29T08:03:20.324Z,101455.16
2023-01-29T08:06:22.123Z,101432.84
2023-01-29T08:09:37.327Z,101430.25
2023-01-29T08:12:45.372Z,101442.91
2023-01-29T08:15:54.080Z,101456.84
2023-01-29T08:19:03.343Z,101455.06
2023-01-29T08:22:14.058Z,101449.16
2023-01-29T08:25:22.915Z,101450.97
2023-01-29T08:28:37.345Z,101454.44
2023-01-29T08:31:39.163Z,101458.72
2023-01-29T08:34:54.411Z,101470.16
2023-01-29T08:37:58.280Z,101473.56
2023-01-29T08:41:14.323Z,101471.06
2023-01-29T08:44:16.040Z,101343.09
2023-01-29T08:47:30.366Z,101484.13
2023-01-29T08:50:39.309Z,101488.44
2023-01-29T08:53:54.527Z,101490.41
2023-01-29T08:57:05.358Z,101489.09
2023-01-29T09:00:15.737Z,101506.81
2023-01-29T09:03:24.360Z,101492.69
2023-01-29T09:06:39.407Z,101508.72
2023-01-29T09:09:41.171Z,101507.84
2023-01-29T09:12:56.352Z,101511.19
2023-01-29T09:16:00.142Z,101521.75
2023-01-29T09:19:14.360Z,101519.78
2023-01-29T09:25:56.323Z,101497.75
2023-01-29T09:29:12.312Z,101373.81
2023-01-29T09:32:52.061Z,101517.34
2023-01-29T09:35:55.427Z,101500.50
2023-01-29T09:39:03.979Z,101527.94
2023-01-29T09:42:26.333Z,101525.19
2023-01-29T09:46:12.405Z,101525.13
2023-01-29T09:49:26.876Z,101513.66
2023-01-29T09:52:46.314Z,101527.84
2023-01-29T09:56:10.497Z,101534.72
2023-01-29T09:59:20.316Z,101530.62
2023-01-29T10:02:55.343Z,101533.28
2023-01-29T10:06:27.739Z,101527.50
2023-01-29T10:10:02.353Z,101519.53
2023-01-29T10:13:28.444Z,101533.72
2023-01-29T10:17:13.382Z,101532.72
2023-01-29T10:20:53.329Z,101529.06
2023-01-29T10:24:17.132Z,101523.44
2023-01-29T10:27:37.333Z,101530.62
2023-01-29T10:30:45.864Z,101528.84
2023-01-29T10:34:07.563Z,101523.59
2023-01-29T10:37:20.644Z,101521.66
2023-01-29T10:40:36.369Z,101524.31
2023-01-29T10:44:06.112Z,101528.72
2023-01-29T10:47:45.411Z,101523.53
2023-01-29T10:51:14.377Z,101520.22
2023-01-29T10:54:33.233Z,101511.44
2023-01-29T10:58:08.365Z,101511.44
2023-01-29T11:01:23.446Z,101508.03
2023-01-29T11:04:32.514Z,101500.28
2023-01-29T11:07:47.408Z,101497.94
2023-01-29T11:11:13.815Z,101491.50
2023-01-29T11:37:29.372Z,101457.81
2023-01-29T11:48:49.390Z,101439.25
2023-01-29T11:57:04.376Z,101429.72
2023-01-29T12:07:51.386Z,101409.97
2023-01-29T12:26:57.410Z,101401.50
2023-01-29T12:30:23.361Z,101414.47
2023-01-29T12:33:49.309Z,101400.81
2023-01-29T12:37:27.327Z,101390.47
2023-01-29T12:40:37.357Z,101366.69
2023-01-29T12:43:57.411Z,101400.34
2023-01-29T12:47:09.452Z,101406.31
2023-01-29T12:50:23.371Z,101405.88
2023-01-29T12:53:41.383Z,101405.88
2023-01-29T12:56:56.687Z,101398.75
2023-01-29T13:00:12.344Z,101394.22
2023-01-29T13:03:47.406Z,101391.47
2023-01-29T13:07:01.388Z,101268.00
2023-01-29T13:10:21.372Z,101385.16
2023-01-29T13:13:36.824Z,101376.41
2023-01-29T13:16:57.410Z,101366.50
2023-01-29T13:20:11.346Z,101360.03
2023-01-29T13:23:29.340Z,101352.84
2023-01-29T13:26:31.611Z,101356.56
2023-01-29T13:29:49.383Z,101342.78
2023-01-29T13:33:00.644Z,101328.75
2023-01-29T13:36:18.307Z,101341.41
2023-01-29T13:39:40.331Z,101332.59
2023-01-29T13:42:50.690Z,101332.06
2023-01-29T13:46:01.413Z,101343.47
2023-01-29T13:49:27.361Z,101346.16
2023-01-29T13:52:48.323Z,101353.75
2023-01-29T13:56:33.350Z,101353.62
2023-01-29T13:59:50.981Z,101351.66
2023-01-29T14:04:03.748Z,101346.59
2023-01-29T14:07:49.316Z,101343.53
2023-01-29T14:11:27.371Z,101323.84
2023-01-29T14:14:58.393Z,101330.75
2023-01-29T14:18:25.527Z,101346.91
2023-01-29T14:21:38.387Z,101356.19
2023-01-29T14:24:48.016Z,101358.28
2023-01-29T14:28:04.469Z,101354.66
2023-01-29T14:31:12.507Z,101361.31
2023-01-29T14:34:59.730Z,101365.50
2023-01-29T14:38:12.426Z,101371.31
2023-01-29T14:41:31.020Z,101365.94
2023-01-29T14:45:04.363Z,101370.72
2023-01-29T14:48:29.728Z,101371.34
2023-01-29T14:51:48.449Z,101363.34
2023-01-29T14:54:52.516Z,101370.41
2023-01-29T14:58:09.416Z,101365.97
2023-01-29T15:01:41.416Z,101373.66
2023-01-29T15:04:53.856Z,101364.19
2023-01-29T15:08:07.362Z,101365.97
2023-01-29T15:11:57.353Z,101373.03
2023-01-29T15:15:50.445Z,101315.44
2023-01-29T15:19:03.470Z,101371.09
2023-01-29T15:22:21.961Z,101367.28
2023-01-29T15:25:30.396Z,101351.97
2023-01-29T15:28:39.708Z,101358.28
2023-01-29T15:31:54.489Z,101352.03
2023-01-29T15:35:15.844Z,101356.50
2023-01-29T15:38:20.510Z,101347.78
2023-01-29T15:41:35.397Z,101325.44
2023-01-29T15:44:43.861Z,101356.56
2023-01-29T15:48:06.386Z,101334.09
2023-01-29T15:51:15.588Z,101367.31
2023-01-29T15:54:34.563Z,101368.25
2023-01-29T15:57:46.503Z,101364.09
2023-01-29T16:01:29.686Z,101366.66
2023-01-29T16:04:46.404Z,101377.88
2023-01-29T16:07:50.107Z,101376.94
2023-01-29T16:11:23.412Z,101377.56
2023-01-29T16:14:25.988Z,101300.34
2023-01-29T16:17:40.417Z,101354.34
2023-01-29T16:21:20.452Z,101373.72
2023-01-29T16:24:55.913Z,101380.69
2023-01-29T16:28:05.484Z,101291.09
2023-01-29T16:31:31.193Z,101342.50
2023-01-29T16:34:44.387Z,101385.94
2023-01-29T16:38:05.357Z,101395.50
2023-01-29T16:41:14.875Z,101398.34
2023-01-29T16:44:42.377Z,101407.09
2023-01-29T16:47:44.378Z,101395.56
2023-01-29T16:51:11.392Z,101393.44
2023-01-29T16:54:31.392Z,101409.44
2023-01-29T16:57:47.404Z,101410.34
2023-01-29T17:01:15.429Z,101405.44
2023-01-29T17:04:19.325Z,101410.72
2023-01-29T17:07:36.405Z,101403.88
2023-01-29T17:10:45.425Z,101404.72
2023-01-29T17:14:03.468Z,101409.00
2023-01-29T17:17:20.371Z,101407.22
2023-01-29T17:20:43.456Z,101405.16
2023-01-29T17:23:52.394Z,101389.22
2023-01-29T17:27:02.114Z,101391.94
2023-01-29T17:30:22.415Z,101396.94
2023-01-29T17:33:25.636Z,101395.94
2023-01-29T17:36:53.408Z,101391.41
2023-01-29T17:40:05.009Z,101369.69
2023-01-29T17:43:14.200Z,101378.12
2023-01-29T17:46:24.409Z,101374.91
2023-01-29T17:49:39.397Z,101373.91
2023-01-29T17:52:48.415Z,101373.97
2023-01-29T17:56:03.351Z,101364.31
2023-01-29T17:59:33.399Z,101365.66
2023-01-29T18:02:48.370Z,101318.72
2023-01-29T18:05:50.944Z,101355.94
2023-01-29T18:09:05.435Z,101352.16
2023-01-29T18:12:17.372Z,101354.00
2023-01-29T18:15:26.132Z,101348.47
2023-01-29T18:18:36.416Z,101357.03
2023-01-29T18:21:51.591Z,101344.03
2023-01-29T18:24:59.372Z,101349.13
2023-01-29T18:28:13.971Z,101336.16
2023-01-29T18:31:22.483Z,101336.88
2023-01-29T18:34:31.182Z,101338.75
2023-01-29T18:37:39.416Z,101335.09
2023-01-29T18:40:55.426Z,101317.38
2023-01-29T18:43:57.349Z,101341.31
2023-01-29T18:47:12.411Z,101334.78
2023-01-29T18:50:20.392Z,101340.84
2023-01-29T18:53:29.208Z,101339.16
2023-01-29T18:56:37.446Z,101339.56
2023-01-29T19:00:07.042Z,101351.84
2023-01-29T19:03:17.417Z,101337.34
2023-01-29T19:06:32.375Z,101331.75
2023-01-29T19:09:42.427Z,101342.06
2023-01-29T19:12:57.405Z,101342.94
2023-01-29T19:16:07.872Z,101337.94
2023-01-29T19:19:16.787Z,101318.66
2023-01-29T19:22:25.909Z,101326.84
2023-01-29T19:25:45.387Z,101326.72
2023-01-29T19:28:54.399Z,101294.06
2023-01-29T19:32:02.976Z,101328.50
2023-01-29T19:35:18.761Z,101324.13
2023-01-29T19:38:21.256Z,101313.16
2023-01-29T19:41:36.356Z,101336.19
2023-01-29T19:44:44.388Z,101319.81
2023-01-29T19:47:59.439Z,101323.16
2023-01-29T19:51:06.697Z,101314.03
2023-01-29T19:54:21.360Z,101324.47
2023-01-29T19:57:29.492Z,101309.84
2023-01-29T20:00:38.054Z,101284.16
2023-01-29T20:03:55.395Z,101332.47
2023-01-29T20:07:05.459Z,101322.97
2023-01-29T20:10:14.552Z,101290.16
2023-01-29T20:13:29.410Z,101320.97
2023-01-29T20:16:38.183Z,101325.47
2023-01-29T20:19:52.405Z,101322.75
2023-01-29T20:23:00.412Z,101319.38
2023-01-29T20:26:12.995Z,101308.00
2023-01-29T20:33:13.456Z,101310.72
2023-01-29T20:36:22.263Z,101299.22
2023-01-29T20:39:38.402Z,101294.75
2023-01-29T20:42:47.200Z,101296.38
2023-01-29T20:46:04.449Z,101305.78
2023-01-29T20:49:13.434Z,101297.06
2023-01-29T20:52:28.432Z,101289.84
2023-01-29T20:55:37.444Z,101300.44
2023-01-29T20:58:47.657Z,101300.50
2023-01-29T21:01:55.453Z,101305.84
2023-01-29T21:05:26.628Z,101290.09
2023-01-29T21:08:35.385Z,101298.09
2023-01-29T21:16:19.590Z,101312.59
2023-01-29T21:19:34.420Z,101311.63
2023-01-29T21:22:50.431Z,101312.00
2023-01-29T21:26:06.584Z,101287.03
2023-01-29T21:29:21.593Z,101285.31
2023-01-29T21:32:24.617Z,101338.13
2023-01-29T21:35:39.428Z,101326.44
2023-01-29T21:38:48.389Z,101328.34
2023-01-29T21:41:56.928Z,101323.00
2023-01-29T21:45:06.420Z,101323.62
2023-01-29T21:48:15.185Z,101321.25
2023-01-29T21:51:29.387Z,101328.72
2023-01-29T21:54:31.050Z,101315.69
2023-01-29T21:57:45.416Z,101316.34
2023-01-29T22:00:47.232Z,101314.63
2023-01-29T22:04:01.409Z,101318.44
2023-01-29T22:07:09.405Z,101306.34
2023-01-29T22:10:19.262Z,101297.59
2023-01-29T22:13:28.440Z,101300.06
2023-01-29T22:16:37.027Z,101301.91
2023-01-29T22:19:45.451Z,101288.00
2023-01-29T22:23:07.383Z,101290.16
2023-01-29T22:26:17.489Z,101272.69
2023-01-29T22:29:32.368Z,101263.91
2023-01-29T22:32:34.122Z,101258.22
2023-01-29T22:35:48.381Z,101231.50
2023-01-29T22:38:50.864Z,101262.47
2023-01-29T22:42:05.457Z,101267.69
2023-01-29T22:45:08.155Z,101255.38
2023-01-29T22:48:22.461Z,101260.72
2023-01-29T22:51:30.445Z,101231.44
2023-01-29T22:54:41.150Z,101249.22
2023-01-29T22:57:49.415Z,101245.12
2023-01-29T23:00:58.160Z,101242.41
2023-01-29T23:04:06.468Z,101242.66
2023-01-29T23:07:21.699Z,101237.56
2023-01-29T23:10:23.741Z,101232.22
2023-01-29T23:13:38.507Z,101237.69
2023-01-29T23:16:40.196Z,101237.50
2023-01-29T23:19:54.402Z,101233.41
2023-01-29T23:23:09.425Z,101232.59
2023-01-29T23:26:18.316Z,101226.59
2023-01-29T23:29:33.416Z,101228.84
2023-01-29T23:32:35.224Z,101226.06
2023-01-29T23:35:49.437Z,101213.88
2023-01-29T23:38:51.432Z,101206.81
2023-01-29T23:42:07.457Z,101207.00
2023-01-29T23:45:16.557Z,101203.31
2023-01-29T23:48:25.388Z,101205.09
2023-01-29T23:51:34.450Z,101202.84
2023-01-29T23:54:43.012Z,101203.03
2023-01-29T23:57:57.402Z,101198.53
